Time;durP1;ratioP1;P1;durP2;ratioP2;P2;SDS_P1;SDS_P2;PMS_P1;PMS_P2;Temp;Humidity;BMP_temperature;BMP_pressure;BME280_temperature;BME280_humidity;BME280_pressure;Samples;Min_cycle;Max_cycle;Signal;HPM_P1;HPM_P2
2023/01/08 00:00:30;;;;;;;4.68;2.42;;;;;;;;;;6285548;22;20337;-92
2023/01/08 00:02:58;;;;;;;4.82;2.25;;;;;;;;;;6284446;22;20098;-91
2023/01/08 00:05:26;;;;;;;4.30;2.17;;;;;;;;;;6275656;22;20015;-91
2023/01/08 00:10:54;;;;;;;5.05;2.45;;;;;;;;;;6278142;22;20035;-92
2023/01/08 00:13:23;;;;;;;4.80;2.15;;;;;;;;;;6265136;22;20015;-92
2023/01/08 00:15:51;;;;;;;3.95;1.95;;;;;;;;;;6229504;22;20023;-92
2023/01/08 00:18:19;;;;;;;3.92;2.13;;;;;;;;;;6251904;22;20019;-91
2023/01/08 00:21:11;;;;;;;4.55;2.40;;;;;;;;;;6290400;22;20023;-91
2023/01/08 00:23:45;;;;;;;3.85;2.08;;;;;;;;;;6291286;22;20363;-92
2023/01/08 00:26:37;;;;;;;4.95;2.47;;;;;;;;;;6294462;22;20057;-91
2023/01/08 00:29:05;;;;;;;4.95;2.53;;;;;;;;;;6252894;22;20364;-91
2023/01/08 00:31:33;;;;;;;4.03;2.35;;;;;;;;;;6291601;22;20020;-91
2023/01/08 00:34:01;;;;;;;4.25;2.20;;;;;;;;;;6286282;22;20026;-91
2023/01/08 00:36:28;;;;;;;5.18;2.22;;;;;;;;;;6287980;22;20444;-91
2023/01/08 00:38:58;;;;;;;4.30;2.28;;;;;;;;;;6262358;22;20012;-91
2023/01/08 00:41:24;;;;;;;4.35;2.25;;;;;;;;;;6290577;22;20031;-91
2023/01/08 00:44:16;;;;;;;4.82;2.20;;;;;;;;;;6291214;22;20093;-91
2023/01/08 00:46:45;;;;;;;5.50;2.47;;;;;;;;;;6293108;22;20015;-91
2023/01/08 00:49:12;;;;;;;3.60;2.15;;;;;;;;;;6291580;22;20011;-91
2023/01/08 00:51:41;;;;;;;5.22;2.30;;;;;;;;;;6289797;22;20070;-91
2023/01/08 00:54:13;;;;;;;4.28;2.33;;;;;;;;;;6290961;22;20023;-91
2023/01/08 00:56:41;;;;;;;4.13;2.28;;;;;;;;;;6289533;22;20016;-92
2023/01/08 00:59:09;;;;;;;4.30;2.28;;;;;;;;;;6253752;22;20348;-91
2023/01/08 01:01:41;;;;;;;6.38;2.33;;;;;;;;;;6287131;22;20016;-91
2023/01/08 01:04:08;;;;;;;5.50;2.63;;;;;;;;;;6289092;22;20016;-91
2023/01/08 01:06:36;;;;;;;4.63;2.45;;;;;;;;;;6251125;22;20026;-90
2023/01/08 01:09:04;;;;;;;4.10;2.42;;;;;;;;;;6285546;22;20026;-92
2023/01/08 01:11:57;;;;;;;5.95;2.75;;;;;;;;;;6275844;22;20686;-92
2023/01/08 01:17:28;;;;;;;4.00;2.35;;;;;;;;;;6285806;22;20038;-91
2023/01/08 01:20:01;;;;;;;5.13;3.00;;;;;;;;;;6287785;22;20012;-90
2023/01/08 01:22:28;;;;;;;5.68;2.40;;;;;;;;;;6284539;22;20011;-91
2023/01/08 01:24:57;;;;;;;5.15;2.30;;;;;;;;;;6284661;22;20500;-90
2023/01/08 01:27:25;;;;;;;4.15;2.45;;;;;;;;;;6248897;22;20089;-91
2023/01/08 01:29:53;;;;;;;4.65;2.60;;;;;;;;;;6249953;22;20024;-91
2023/01/08 01:32:21;;;;;;;4.25;2.58;;;;;;;;;;6284942;22;20440;-91
2023/01/08 01:34:48;;;;;;;5.40;2.17;;;;;;;;;;6286257;22;20022;-91
2023/01/08 01:37:21;;;;;;;6.35;2.40;;;;;;;;;;6261722;22;20015;-91
2023/01/08 01:40:14;;;;;;;5.90;2.38;;;;;;;;;;6285980;22;20019;-91
2023/01/08 01:42:48;;;;;;;5.45;2.35;;;;;;;;;;6285442;22;20022;-91
2023/01/08 01:45:26;;;;;;;5.25;2.58;;;;;;;;;;6287054;22;20455;-91
2023/01/08 01:48:01;;;;;;;4.82;2.63;;;;;;;;;;6250591;22;20024;-91
2023/01/08 01:50:32;;;;;;;4.88;2.70;;;;;;;;;;6251733;22;20068;-90
2023/01/08 01:53:26;;;;;;;5.45;2.40;;;;;;;;;;6278302;22;20151;-91
2023/01/08 01:55:58;;;;;;;5.28;2.38;;;;;;;;;;6289575;22;20019;-91
2023/01/08 01:58:31;;;;;;;5.65;2.30;;;;;;;;;;6293558;22;20019;-90
2023/01/08 02:01:05;;;;;;;4.13;2.30;;;;;;;;;;6289968;22;20019;-90
2023/01/08 02:03:36;;;;;;;5.00;2.25;;;;;;;;;;6266133;22;20452;-90
2023/01/08 02:06:11;;;;;;;4.80;2.53;;;;;;;;;;6290989;22;20020;-90
2023/01/08 02:08:48;;;;;;;3.65;2.08;;;;;;;;;;6293638;22;20089;-91
2023/01/08 02:11:22;;;;;;;3.60;2.28;;;;;;;;;;6286518;22;20030;-90
2023/01/08 02:14:06;;;;;;;7.20;2.08;;;;;;;;;;6249586;22;20329;-91
2023/01/08 02:16:51;;;;;;;4.68;2.50;;;;;;;;;;6284555;22;20026;-91
2023/01/08 02:19:47;;;;;;;4.07;2.22;;;;;;;;;;6286044;22;20427;-90
2023/01/08 02:22:42;;;;;;;5.28;2.35;;;;;;;;;;6284594;22;20023;-91
2023/01/08 02:25:53;;;;;;;4.60;2.25;;;;;;;;;;6285523;22;20473;-91
2023/01/08 02:28:57;;;;;;;6.60;2.70;;;;;;;;;;6264474;22;20015;-91
2023/01/08 02:31:32;;;;;;;4.68;2.35;;;;;;;;;;6300146;22;20023;-91
2023/01/08 02:34:01;;;;;;;4.03;2.30;;;;;;;;;;6281674;22;20119;-91
2023/01/08 02:36:35;;;;;;;4.03;1.95;;;;;;;;;;6259047;22;20023;-91
2023/01/08 02:39:43;;;;;;;3.35;1.90;;;;;;;;;;6285080;22;20015;-91
2023/01/08 02:42:23;;;;;;;3.80;2.17;;;;;;;;;;6283296;22;20112;-91
2023/01/08 02:45:40;;;;;;;4.63;2.10;;;;;;;;;;6248269;22;20385;-90
2023/01/08 02:48:51;;;;;;;3.53;2.08;;;;;;;;;;6285751;22;20004;-91
2023/01/08 02:51:25;;;;;;;4.15;2.10;;;;;;;;;;6273963;22;20016;-91
2023/01/08 02:54:03;;;;;;;4.10;2.08;;;;;;;;;;6286027;22;20015;-91
2023/01/08 02:56:37;;;;;;;3.30;1.83;;;;;;;;;;6285371;22;20016;-90
2023/01/08 02:59:06;;;;;;;3.47;2.00;;;;;;;;;;6273597;22;20019;-91
2023/01/08 03:01:58;;;;;;;5.25;2.47;;;;;;;;;;6284577;22;20680;-90
2023/01/08 03:04:26;;;;;;;3.60;2.17;;;;;;;;;;6309799;22;20039;-91
2023/01/08 03:06:55;;;;;;;4.15;2.22;;;;;;;;;;6274138;22;20390;-90
2023/01/08 03:09:23;;;;;;;4.20;1.92;;;;;;;;;;6286098;22;20025;-90
2023/01/08 03:12:01;;;;;;;4.80;2.20;;;;;;;;;;6299245;22;20077;-91
2023/01/08 03:14:59;;;;;;;4.93;2.38;;;;;;;;;;6248756;22;20024;-91
2023/01/08 03:17:34;;;;;;;5.07;2.10;;;;;;;;;;6284114;22;20061;-90
2023/01/08 03:20:14;;;;;;;3.47;1.90;;;;;;;;;;6285446;22;20030;-91
2023/01/08 03:22:46;;;;;;;4.40;2.42;;;;;;;;;;6273650;22;20020;-91
2023/01/08 03:25:16;;;;;;;5.15;2.38;;;;;;;;;;6273273;22;20023;-90
2023/01/08 03:27:56;;;;;;;6.88;2.45;;;;;;;;;;6283948;22;20027;-90
2023/01/08 03:30:27;;;;;;;4.30;2.25;;;;;;;;;;6285360;22;20015;-91
2023/01/08 03:32:58;;;;;;;4.25;2.22;;;;;;;;;;6286146;22;20043;-91
2023/01/08 03:35:28;;;;;;;6.70;2.50;;;;;;;;;;6285113;22;20107;-91
2023/01/08 03:38:05;;;;;;;4.70;2.30;;;;;;;;;;6283936;22;20046;-91
2023/01/08 03:40:37;;;;;;;7.07;2.25;;;;;;;;;;6284065;22;20016;-91
2023/01/08 03:43:05;;;;;;;3.65;1.85;;;;;;;;;;6283820;22;20444;-92
2023/01/08 03:46:02;;;;;;;4.70;2.42;;;;;;;;;;6272713;22;20130;-91
2023/01/08 03:48:59;;;;;;;3.38;2.00;;;;;;;;;;6285566;22;20024;-91
2023/01/08 03:51:40;;;;;;;5.25;2.13;;;;;;;;;;6285313;22;20016;-91
2023/01/08 03:54:36;;;;;;;3.83;2.22;;;;;;;;;;6285591;22;20015;-90
2023/01/08 03:57:10;;;;;;;4.53;2.00;;;;;;;;;;6284660;22;20031;-91
2023/01/08 03:59:39;;;;;;;3.97;1.95;;;;;;;;;;6285423;22;20007;-92
2023/01/08 04:02:14;;;;;;;5.10;2.30;;;;;;;;;;6275718;22;20042;-91
2023/01/08 04:04:41;;;;;;;3.25;1.88;;;;;;;;;;6286716;22;20016;-91
2023/01/08 04:07:12;;;;;;;4.45;2.38;;;;;;;;;;6287157;22;20035;-91
2023/01/08 04:09:38;;;;;;;7.38;2.63;;;;;;;;;;6287018;22;20444;-91
2023/01/08 04:12:06;;;;;;;4.45;2.15;;;;;;;;;;6285284;22;20114;-90
2023/01/08 04:14:34;;;;;;;5.00;2.20;;;;;;;;;;6285557;22;20023;-91
2023/01/08 04:17:27;;;;;;;4.45;2.00;;;;;;;;;;6249320;22;20019;-91
2023/01/08 04:20:19;;;;;;;3.90;2.08;;;;;;;;;;6265490;22;20014;-91
2023/01/08 04:25:41;;;;;;;6.50;2.13;;;;;;;;;;6249462;22;20099;-91
2023/01/08 04:28:13;;;;;;;4.80;2.55;;;;;;;;;;6286611;22;20026;-91
2023/01/08 04:30:40;;;;;;;5.53;2.22;;;;;;;;;;6286130;22;20636;-90
2023/01/08 04:33:09;;;;;;;4.20;2.45;;;;;;;;;;6273954;22;20020;-91
2023/01/08 04:35:37;;;;;;;5.35;2.00;;;;;;;;;;6260276;22;20030;-91
2023/01/08 04:38:04;;;;;;;4.78;2.33;;;;;;;;;;6286671;22;20079;-91
2023/01/08 04:40:33;;;;;;;4.25;2.40;;;;;;;;;;6286362;22;20635;-91
2023/01/08 04:43:01;;;;;;;5.43;2.40;;;;;;;;;;6274414;22;20015;-91
2023/01/08 04:45:28;;;;;;;5.30;2.80;;;;;;;;;;6286706;22;20079;-90
2023/01/08 04:48:20;;;;;;;4.32;2.40;;;;;;;;;;6274585;22;20118;-91
2023/01/08 04:51:13;;;;;;;6.57;2.35;;;;;;;;;;6285313;22;20741;-92
2023/01/08 04:53:49;;;;;;;5.25;2.30;;;;;;;;;;6284789;22;20150;-91
2023/01/08 04:56:16;;;;;;;5.50;2.42;;;;;;;;;;6287445;22;20080;-91
2023/01/08 04:58:44;;;;;;;4.35;2.28;;;;;;;;;;6286729;22;20015;-91
2023/01/08 05:01:18;;;;;;;4.93;2.22;;;;;;;;;;6286663;22;20016;-91
2023/01/08 05:03:47;;;;;;;3.83;2.38;;;;;;;;;;6272604;22;20583;-91
2023/01/08 05:06:21;;;;;;;7.45;2.15;;;;;;;;;;6285335;22;20011;-91
2023/01/08 05:08:49;;;;;;;3.90;2.30;;;;;;;;;;6284751;22;20043;-91
2023/01/08 05:11:26;;;;;;;6.28;2.45;;;;;;;;;;6274297;22;20026;-91
2023/01/08 05:13:53;;;;;;;4.35;1.95;;;;;;;;;;6248286;22;20024;-91
2023/01/08 05:16:45;;;;;;;4.38;2.28;;;;;;;;;;6284495;22;20047;-92
2023/01/08 05:19:36;;;;;;;4.25;2.40;;;;;;;;;;6264401;22;20054;-90
2023/01/08 05:22:09;;;;;;;5.03;1.98;;;;;;;;;;6285654;22;20086;-91
2023/01/08 05:24:36;;;;;;;7.28;2.20;;;;;;;;;;6286015;22;20019;-91
2023/01/08 05:27:28;;;;;;;5.25;2.30;;;;;;;;;;6283982;22;20011;-91
2023/01/08 05:29:57;;;;;;;4.35;2.35;;;;;;;;;;6283891;22;20047;-91
2023/01/08 05:32:24;;;;;;;4.63;2.28;;;;;;;;;;6283428;22;20848;-91
2023/01/08 05:34:53;;;;;;;3.88;2.08;;;;;;;;;;6284718;22;20102;-91
2023/01/08 05:37:24;;;;;;;5.22;2.63;;;;;;;;;;6285021;22;20026;-91
2023/01/08 05:39:53;;;;;;;4.65;2.63;;;;;;;;;;6285460;22;20012;-91
2023/01/08 05:42:21;;;;;;;4.72;2.10;;;;;;;;;;6249057;22;20028;-91
2023/01/08 05:44:48;;;;;;;3.72;2.03;;;;;;;;;;6285540;22;20015;-91
2023/01/08 05:47:16;;;;;;;4.93;2.10;;;;;;;;;;6285095;22;20030;-90
2023/01/08 05:49:45;;;;;;;4.43;2.10;;;;;;;;;;6285703;22;20789;-90
2023/01/08 05:52:16;;;;;;;4.50;2.00;;;;;;;;;;6248239;22;20024;-91
2023/01/08 05:54:44;;;;;;;3.70;2.45;;;;;;;;;;6273261;22;20054;-90
2023/01/08 05:57:17;;;;;;;4.07;1.90;;;;;;;;;;6284761;22;20452;-91
2023/01/08 05:59:45;;;;;;;3.38;1.90;;;;;;;;;;6274263;22;20027;-91
2023/01/08 06:02:16;;;;;;;6.03;2.38;;;;;;;;;;6273132;22;20034;-91
2023/01/08 06:07:38;;;;;;;4.88;1.90;;;;;;;;;;6283569;22;20671;-91
2023/01/08 06:10:07;;;;;;;5.00;2.25;;;;;;;;;;6273102;22;20030;-90
2023/01/08 06:12:35;;;;;;;4.38;2.15;;;;;;;;;;6285088;22;20022;-91
2023/01/08 06:15:04;;;;;;;4.68;2.28;;;;;;;;;;6283640;22;20015;-91
2023/01/08 06:17:34;;;;;;;5.18;1.92;;;;;;;;;;6284514;22;20019;-91
2023/01/08 06:20:27;;;;;;;4.75;2.50;;;;;;;;;;6254066;22;20090;-90
2023/01/08 06:23:01;;;;;;;4.47;2.25;;;;;;;;;;6283230;22;20012;-91
2023/01/08 06:25:31;;;;;;;4.55;2.28;;;;;;;;;;6273681;22;20024;-90
2023/01/08 06:28:01;;;;;;;6.10;2.40;;;;;;;;;;6283358;22;20022;-90
2023/01/08 06:30:33;;;;;;;5.38;2.20;;;;;;;;;;6284608;22;20106;-92
2023/01/08 06:33:01;;;;;;;5.28;2.45;;;;;;;;;;6283099;22;20374;-91
2023/01/08 06:35:28;;;;;;;3.78;2.22;;;;;;;;;;6283891;22;20043;-91
2023/01/08 06:38:02;;;;;;;4.32;2.40;;;;;;;;;;6284879;22;20103;-91
2023/01/08 06:40:52;;;;;;;4.20;2.20;;;;;;;;;;6282700;22;20011;-91
2023/01/08 06:43:32;;;;;;;4.85;2.00;;;;;;;;;;6308574;22;20020;-91
2023/01/08 06:46:09;;;;;;;5.47;2.20;;;;;;;;;;6283349;22;20077;-91
2023/01/08 06:48:37;;;;;;;4.63;2.22;;;;;;;;;;6272658;22;20043;-91
2023/01/08 06:51:05;;;;;;;4.30;2.33;;;;;;;;;;6272830;22;20012;-91
2023/01/08 06:53:33;;;;;;;6.15;2.33;;;;;;;;;;6283531;22;20692;-91
2023/01/08 06:56:02;;;;;;;5.38;2.13;;;;;;;;;;6283445;22;20050;-90
2023/01/08 06:58:30;;;;;;;4.47;2.53;;;;;;;;;;6257903;22;20015;-91
2023/01/08 07:00:59;;;;;;;5.00;2.25;;;;;;;;;;6283393;22;20012;-91
2023/01/08 07:03:27;;;;;;;4.82;2.20;;;;;;;;;;6246944;22;20073;-91
2023/01/08 07:05:55;;;;;;;4.70;2.65;;;;;;;;;;6272506;22;20456;-91
2023/01/08 07:08:49;;;;;;;4.75;2.55;;;;;;;;;;6284470;22;20057;-91
2023/01/08 07:11:17;;;;;;;6.43;2.20;;;;;;;;;;6247295;22;20025;-91
2023/01/08 07:13:45;;;;;;;4.70;2.30;;;;;;;;;;6258014;22;20016;-91
2023/01/08 07:16:37;;;;;;;4.25;2.53;;;;;;;;;;6272389;22;20015;-91
2023/01/08 07:19:05;;;;;;;5.13;2.17;;;;;;;;;;6282842;22;20019;-90
2023/01/08 07:21:33;;;;;;;4.47;2.50;;;;;;;;;;6284548;22;20549;-91
2023/01/08 07:24:01;;;;;;;4.03;2.08;;;;;;;;;;6283406;22;20039;-91
2023/01/08 07:26:29;;;;;;;4.35;2.38;;;;;;;;;;6282832;22;20024;-91
2023/01/08 07:28:57;;;;;;;4.47;2.47;;;;;;;;;;6272349;22;20058;-92
2023/01/08 07:31:48;;;;;;;4.88;2.40;;;;;;;;;;6272802;22;20027;-91
2023/01/08 07:34:20;;;;;;;5.32;2.50;;;;;;;;;;6280433;22;20012;-91
2023/01/08 07:36:49;;;;;;;4.20;2.40;;;;;;;;;;6284651;22;20356;-91
2023/01/08 07:45:33;;;;;;;6.13;2.30;;;;;;;;;;6274496;22;20028;-91
2023/01/08 07:48:09;;;;;;;9.38;2.50;;;;;;;;;;6249109;22;20367;-91
2023/01/08 07:50:43;;;;;;;4.18;2.22;;;;;;;;;;6285727;22;20012;-91
2023/01/08 07:53:37;;;;;;;4.97;2.42;;;;;;;;;;6285955;22;20028;-90
2023/01/08 07:56:07;;;;;;;4.35;2.50;;;;;;;;;;6286227;22;20103;-91
2023/01/08 07:58:35;;;;;;;5.40;2.40;;;;;;;;;;6286433;22;20011;-91
2023/01/08 08:01:10;;;;;;;6.03;2.70;;;;;;;;;;6285224;22;20012;-90
2023/01/08 08:03:43;;;;;;;3.97;2.58;;;;;;;;;;6274335;22;20015;-91
2023/01/08 08:06:15;;;;;;;7.20;2.60;;;;;;;;;;6286093;22;20024;-91
2023/01/08 08:08:43;;;;;;;4.63;2.58;;;;;;;;;;6284671;22;20347;-91
2023/01/08 08:11:10;;;;;;;4.50;2.50;;;;;;;;;;6248175;22;20015;-91
2023/01/08 08:13:43;;;;;;;5.13;2.50;;;;;;;;;;6284559;22;20022;-91
2023/01/08 08:16:11;;;;;;;4.72;2.53;;;;;;;;;;6224091;22;20467;-91
2023/01/08 08:19:05;;;;;;;6.43;2.70;;;;;;;;;;6284324;22;20023;-90
2023/01/08 08:21:32;;;;;;;4.40;2.42;;;;;;;;;;6284110;22;20023;-91
2023/01/08 08:24:01;;;;;;;4.80;2.28;;;;;;;;;;6285606;22;20039;-91
2023/01/08 08:26:39;;;;;;;4.55;2.50;;;;;;;;;;6283554;22;20011;-91
2023/01/08 08:29:07;;;;;;;5.07;2.28;;;;;;;;;;6282963;22;20452;-90
2023/01/08 08:31:35;;;;;;;6.57;3.30;;;;;;;;;;6247700;22;20073;-91
2023/01/08 08:34:07;;;;;;;5.00;2.63;;;;;;;;;;6246344;22;20020;-90
2023/01/08 08:36:34;;;;;;;5.43;3.00;;;;;;;;;;6257343;22;20016;-90
2023/01/08 08:39:03;;;;;;;4.95;2.60;;;;;;;;;;6284348;22;20093;-90
2023/01/08 08:41:31;;;;;;;5.70;2.83;;;;;;;;;;6272925;22;20069;-91
2023/01/08 08:43:59;;;;;;;6.60;2.80;;;;;;;;;;6282620;22;20019;-90
2023/01/08 08:46:31;;;;;;;8.38;3.17;;;;;;;;;;6260332;22;20023;-92
2023/01/08 08:48:59;;;;;;;7.00;3.05;;;;;;;;;;6235864;22;20030;-91
2023/01/08 08:51:31;;;;;;;5.60;3.08;;;;;;;;;;6279727;22;20012;-92
2023/01/08 08:54:03;;;;;;;5.95;2.88;;;;;;;;;;6269327;22;20038;-92
2023/01/08 08:56:55;;;;;;;5.28;2.50;;;;;;;;;;6263996;22;20018;-91
2023/01/08 08:59:26;;;;;;;4.97;2.50;;;;;;;;;;6234854;22;20039;-92
2023/01/08 09:02:20;;;;;;;4.45;2.45;;;;;;;;;;6296576;22;20022;-92
2023/01/08 09:05:12;;;;;;;5.55;2.33;;;;;;;;;;6259971;22;20554;-91
2023/01/08 09:07:40;;;;;;;5.55;2.20;;;;;;;;;;6285206;22;20075;-91
2023/01/08 09:10:33;;;;;;;4.72;2.28;;;;;;;;;;6285651;22;20015;-91
2023/01/08 09:13:00;;;;;;;4.47;2.58;;;;;;;;;;6284985;22;20093;-90
2023/01/08 09:15:28;;;;;;;5.85;2.30;;;;;;;;;;6228022;22;20030;-91
2023/01/08 09:17:57;;;;;;;6.70;2.72;;;;;;;;;;6254014;22;20020;-91
2023/01/08 09:20:25;;;;;;;5.85;2.85;;;;;;;;;;6256605;22;20024;-91
2023/01/08 09:22:53;;;;;;;5.53;2.55;;;;;;;;;;6289570;22;20027;-90
2023/01/08 09:25:20;;;;;;;5.30;2.53;;;;;;;;;;6258261;22;20039;-90
2023/01/08 09:27:49;;;;;;;5.32;2.63;;;;;;;;;;6283164;22;20098;-90
2023/01/08 09:30:17;;;;;;;5.88;2.70;;;;;;;;;;6283652;22;20345;-90
2023/01/08 09:33:01;;;;;;;5.70;2.33;;;;;;;;;;6256618;22;20514;-91
2023/01/08 09:35:30;;;;;;;6.30;2.83;;;;;;;;;;6289515;22;20019;-90
2023/01/08 09:37:59;;;;;;;4.28;2.60;;;;;;;;;;6282087;22;20024;-91
2023/01/08 09:40:58;;;;;;;5.70;2.75;;;;;;;;;;6291932;22;20506;-90
2023/01/08 09:43:29;;;;;;;6.63;2.97;;;;;;;;;;6261360;22;20015;-91
2023/01/08 09:46:01;;;;;;;4.55;2.50;;;;;;;;;;6293643;22;20016;-90
2023/01/08 09:48:37;;;;;;;4.53;2.40;;;;;;;;;;6252983;22;20588;-91
2023/01/08 09:51:14;;;;;;;6.18;2.85;;;;;;;;;;6253558;22;20016;-90
2023/01/08 09:53:53;;;;;;;5.45;2.75;;;;;;;;;;6257232;22;20069;-90
2023/01/08 09:56:21;;;;;;;4.70;2.50;;;;;;;;;;6262191;22;20020;-91
2023/01/08 09:58:58;;;;;;;7.55;2.75;;;;;;;;;;6260306;22;20026;-91
2023/01/08 10:01:29;;;;;;;5.25;2.20;;;;;;;;;;6284255;22;20016;-91
2023/01/08 10:04:02;;;;;;;4.75;2.50;;;;;;;;;;6257789;22;20019;-91
2023/01/08 10:06:31;;;;;;;5.15;2.28;;;;;;;;;;6260674;22;20023;-91
2023/01/08 10:08:59;;;;;;;4.65;2.50;;;;;;;;;;6291325;22;20020;-91
2023/01/08 10:11:36;;;;;;;5.40;2.30;;;;;;;;;;6257300;22;20016;-92
2023/01/08 10:14:21;;;;;;;4.40;2.40;;;;;;;;;;6283733;22;20022;-90
2023/01/08 10:17:02;;;;;;;4.05;2.13;;;;;;;;;;6256663;22;20024;-92
2023/01/08 10:19:31;;;;;;;5.28;2.58;;;;;;;;;;6245869;22;20367;-91
2023/01/08 10:21:58;;;;;;;5.75;2.55;;;;;;;;;;6280923;22;20007;-90
2023/01/08 10:24:38;;;;;;;4.20;2.42;;;;;;;;;;6282634;22;20027;-91
2023/01/08 10:27:19;;;;;;;4.72;2.35;;;;;;;;;;6270382;22;20390;-91
2023/01/08 10:29:51;;;;;;;6.38;2.40;;;;;;;;;;6246506;22;20023;-91
2023/01/08 10:32:28;;;;;;;3.80;2.20;;;;;;;;;;6281551;22;20058;-91
2023/01/08 10:34:57;;;;;;;5.05;2.40;;;;;;;;;;6281708;22;20016;-92
2023/01/08 10:38:26;;;;;;;6.15;2.15;;;;;;;;;;6279668;22;20019;-90
2023/01/08 10:41:19;;;;;;;4.38;2.17;;;;;;;;;;6288180;22;20034;-91
2023/01/08 10:43:52;;;;;;;6.47;2.50;;;;;;;;;;6285462;22;20024;-90
2023/01/08 10:46:40;;;;;;;6.93;2.00;;;;;;;;;;6274987;22;20027;-90
2023/01/08 10:49:27;;;;;;;4.15;2.10;;;;;;;;;;6284762;22;20466;-90
2023/01/08 10:51:55;;;;;;;4.63;2.20;;;;;;;;;;6272215;22;20515;-90
2023/01/08 10:54:43;;;;;;;5.03;2.05;;;;;;;;;;6286231;22;20023;-91
2023/01/08 10:57:27;;;;;;;4.75;2.10;;;;;;;;;;6289139;22;20062;-90
2023/01/08 11:00:00;;;;;;;5.63;2.50;;;;;;;;;;6248841;22;20030;-90
2023/01/08 11:02:37;;;;;;;6.38;2.17;;;;;;;;;;6271607;22;20027;-91
2023/01/08 11:05:10;;;;;;;5.70;1.83;;;;;;;;;;6248680;22;20023;-90
2023/01/08 11:07:49;;;;;;;3.47;1.77;;;;;;;;;;6284798;22;20061;-89
2023/01/08 11:10:25;;;;;;;4.35;1.83;;;;;;;;;;6252369;22;20019;-89
2023/01/08 11:13:06;;;;;;;5.63;1.83;;;;;;;;;;6283213;22;20007;-89
2023/01/08 11:15:38;;;;;;;4.68;1.90;;;;;;;;;;6286463;22;20106;-89
2023/01/08 11:18:11;;;;;;;5.72;2.55;;;;;;;;;;6272395;22;20026;-90
2023/01/08 11:21:09;;;;;;;6.55;2.80;;;;;;;;;;6253398;22;20103;-91
2023/01/08 11:24:36;;;;;;;4.43;2.15;;;;;;;;;;6275563;22;20026;-91
2023/01/08 11:27:25;;;;;;;3.92;1.95;;;;;;;;;;6283506;22;20359;-91
2023/01/08 11:29:58;;;;;;;4.57;2.15;;;;;;;;;;6281889;22;20020;-91
2023/01/08 11:32:38;;;;;;;3.83;2.20;;;;;;;;;;6280108;22;20015;-90
2023/01/08 11:35:19;;;;;;;5.53;2.17;;;;;;;;;;6282540;22;20352;-91
2023/01/08 11:37:49;;;;;;;5.00;2.40;;;;;;;;;;6269019;22;20395;-91
2023/01/08 11:40:35;;;;;;;6.63;2.35;;;;;;;;;;6242237;22;20070;-91
2023/01/08 11:43:45;;;;;;;3.92;2.03;;;;;;;;;;6284282;22;20022;-91
2023/01/08 11:46:16;;;;;;;6.28;2.83;;;;;;;;;;6202749;23;20575;-91
2023/01/08 11:49:04;;;;;;;7.40;2.65;;;;;;;;;;6222800;23;20048;-91
2023/01/08 11:51:45;;;;;;;5.07;2.45;;;;;;;;;;6229900;23;20574;-91
2023/01/08 11:54:30;;;;;;;4.57;2.55;;;;;;;;;;6219501;23;20028;-91
2023/01/08 11:57:20;;;;;;;7.43;2.65;;;;;;;;;;6217009;23;20028;-91
2023/01/08 12:00:26;;;;;;;5.53;2.63;;;;;;;;;;6249600;23;20243;-91
2023/01/08 12:02:58;;;;;;;4.90;2.72;;;;;;;;;;6224417;23;20356;-92
2023/01/08 12:05:46;;;;;;;9.05;2.95;;;;;;;;;;6218854;23;20031;-91
2023/01/08 12:08:22;;;;;;;5.07;2.47;;;;;;;;;;6254627;23;20514;-91
2023/01/08 12:11:06;;;;;;;7.85;3.20;;;;;;;;;;6192080;23;20106;-92
2023/01/08 12:14:05;;;;;;;3.80;1.92;;;;;;;;;;6225773;23;20019;-93
2023/01/08 12:17:03;;;;;;;5.38;2.40;;;;;;;;;;6223612;23;20030;-93
2023/01/08 12:20:12;;;;;;;6.35;2.13;;;;;;;;;;6226542;23;20087;-91
2023/01/08 12:23:29;;;;;;;5.45;2.20;;;;;;;;;;6290406;22;20024;-92
2023/01/08 12:26:39;;;;;;;3.28;1.92;;;;;;;;;;6256349;22;20035;-91
2023/01/08 12:29:26;;;;;;;5.35;2.20;;;;;;;;;;6294736;22;20012;-92
2023/01/08 12:32:09;;;;;;;3.88;1.98;;;;;;;;;;6255342;22;20015;-91
2023/01/08 12:34:36;;;;;;;3.85;2.08;;;;;;;;;;6251836;22;20492;-91
2023/01/08 12:37:30;;;;;;;5.10;2.00;;;;;;;;;;6252740;22;20023;-90
2023/01/08 12:40:17;;;;;;;4.32;1.63;;;;;;;;;;6289605;22;20012;-91
2023/01/08 12:43:20;;;;;;;3.03;1.60;;;;;;;;;;6258086;22;20111;-91
2023/01/08 12:45:51;;;;;;;4.35;1.98;;;;;;;;;;6293811;22;20464;-92
2023/01/08 12:48:24;;;;;;;3.47;1.95;;;;;;;;;;6257740;22;20024;-92
2023/01/08 12:51:35;;;;;;;3.63;1.73;;;;;;;;;;6292490;22;20023;-91
2023/01/08 12:54:21;;;;;;;3.90;1.83;;;;;;;;;;6277723;22;20020;-92
2023/01/08 12:57:06;;;;;;;7.95;1.60;;;;;;;;;;6288509;22;20015;-90
2023/01/08 12:59:47;;;;;;;4.00;1.55;;;;;;;;;;6254648;22;20069;-91
2023/01/08 13:02:37;;;;;;;2.85;1.55;;;;;;;;;;6285248;22;20016;-91
2023/01/08 13:05:19;;;;;;;3.58;1.80;;;;;;;;;;6284508;22;20020;-91
2023/01/08 13:08:25;;;;;;;4.47;2.00;;;;;;;;;;6283600;22;20034;-92
2023/01/08 13:10:59;;;;;;;5.15;1.77;;;;;;;;;;6263610;22;20018;-92
2023/01/08 13:13:32;;;;;;;4.50;1.85;;;;;;;;;;6250736;22;20075;-92
2023/01/08 13:16:08;;;;;;;5.32;2.50;;;;;;;;;;6273538;22;20033;-90
2023/01/08 13:18:59;;;;;;;3.92;1.80;;;;;;;;;;6282784;22;20046;-91
2023/01/08 13:21:56;;;;;;;3.85;1.85;;;;;;;;;;6286684;22;20020;-91
2023/01/08 13:24:39;;;;;;;6.47;1.55;;;;;;;;;;6286987;22;20078;-91
2023/01/08 13:27:15;;;;;;;5.10;1.92;;;;;;;;;;6286447;22;20125;-92
2023/01/08 13:29:45;;;;;;;4.18;1.80;;;;;;;;;;6246616;22;20686;-92
2023/01/08 13:32:25;;;;;;;3.30;1.85;;;;;;;;;;6283788;22;20031;-92
2023/01/08 13:35:22;;;;;;;4.05;2.00;;;;;;;;;;6252430;22;20045;-91
2023/01/08 13:38:12;;;;;;;5.70;2.00;;;;;;;;;;6281788;22;20023;-92
2023/01/08 13:41:29;;;;;;;3.88;1.85;;;;;;;;;;6247111;22;20788;-90
2023/01/08 13:44:05;;;;;;;4.38;2.08;;;;;;;;;;6271672;22;20026;-89
2023/01/08 13:46:36;;;;;;;3.78;1.90;;;;;;;;;;6283873;22;20023;-90
2023/01/08 13:49:08;;;;;;;6.20;2.25;;;;;;;;;;6280638;22;20015;-90
2023/01/08 13:51:43;;;;;;;4.38;2.03;;;;;;;;;;6282051;22;20465;-90
2023/01/08 13:54:16;;;;;;;3.67;1.90;;;;;;;;;;6288267;22;20016;-91
2023/01/08 13:56:53;;;;;;;3.40;1.40;;;;;;;;;;6272429;22;20016;-88
2023/01/08 13:59:54;;;;;;;5.25;1.80;;;;;;;;;;6284133;22;20120;-85
2023/01/08 14:02:49;;;;;;;3.92;1.60;;;;;;;;;;6283611;22;20022;-90
2023/01/08 14:05:28;;;;;;;2.90;1.60;;;;;;;;;;6244520;22;20019;-89
2023/01/08 14:07:57;;;;;;;3.15;1.50;;;;;;;;;;6284149;22;20038;-91
2023/01/08 14:10:27;;;;;;;4.80;1.55;;;;;;;;;;6246068;22;20065;-90
2023/01/08 14:13:07;;;;;;;3.88;1.63;;;;;;;;;;6284307;22;20019;-91
2023/01/08 14:15:37;;;;;;;3.35;1.40;;;;;;;;;;6219317;22;20023;-91
2023/01/08 14:18:10;;;;;;;4.22;1.50;;;;;;;;;;6278300;22;20099;-92
2023/01/08 14:20:41;;;;;;;11.63;1.80;;;;;;;;;;6244676;22;20047;-91
2023/01/08 14:23:23;;;;;;;3.15;1.40;;;;;;;;;;6244753;22;20015;-91
2023/01/08 14:25:51;;;;;;;5.28;1.38;;;;;;;;;;6281251;22;20019;-92
2023/01/08 14:28:25;;;;;;;3.70;1.60;;;;;;;;;;6278847;22;20363;-91
2023/01/08 14:31:22;;;;;;;3.15;1.42;;;;;;;;;;6243804;22;20011;-92
2023/01/08 14:33:55;;;;;;;2.78;1.30;;;;;;;;;;6281374;22;20023;-91
2023/01/08 14:36:23;;;;;;;3.67;1.08;;;;;;;;;;6278612;22;20406;-91
2023/01/08 14:38:51;;;;;;;3.25;1.25;;;;;;;;;;6278338;22;20050;-91
2023/01/08 14:44:24;;;;;;;5.72;1.50;;;;;;;;;;6280918;22;20474;-91
2023/01/08 14:47:05;;;;;;;6.47;1.40;;;;;;;;;;6279893;22;20020;-92
2023/01/08 14:49:59;;;;;;;5.75;1.25;;;;;;;;;;6279984;22;20039;-93
2023/01/08 14:55:28;;;;;;;3.75;0.90;;;;;;;;;;6268823;22;20016;-92
2023/01/08 14:57:55;;;;;;;3.47;1.42;;;;;;;;;;6279541;22;20378;-93
2023/01/08 15:00:30;;;;;;;6.63;2.05;;;;;;;;;;6286760;22;20015;-92
2023/01/08 15:02:59;;;;;;;6.05;2.28;;;;;;;;;;6282283;22;20018;-93
2023/01/08 15:05:31;;;;;;;8.23;2.38;;;;;;;;;;6273369;22;20019;-91
2023/01/08 15:08:38;;;;;;;11.52;2.33;;;;;;;;;;6279889;22;20043;-91
2023/01/08 15:11:23;;;;;;;8.02;1.80;;;;;;;;;;6257232;22;20022;-91
2023/01/08 15:13:52;;;;;;;6.45;1.55;;;;;;;;;;6292236;22;20440;-91
2023/01/08 15:16:41;;;;;;;4.22;1.27;;;;;;;;;;6275871;22;20491;-90
2023/01/08 15:19:16;;;;;;;5.47;1.27;;;;;;;;;;6285154;22;20094;-91
2023/01/08 15:22:17;;;;;;;5.20;1.00;;;;;;;;;;6255777;22;20024;-90
2023/01/08 15:25:21;;;;;;;10.15;1.88;;;;;;;;;;6283443;22;20038;-90
2023/01/08 15:27:57;;;;;;;9.00;1.23;;;;;;;;;;6289046;22;20022;-90
2023/01/08 15:31:54;;;;;;;3.13;1.10;;;;;;;;;;6269065;22;20015;-91
2023/01/08 15:34:20;;;;;;;2.53;0.85;;;;;;;;;;6283361;22;20015;-90
2023/01/08 15:36:48;;;;;;;5.22;1.60;;;;;;;;;;6288928;22;20473;-91
2023/01/08 15:39:16;;;;;;;5.63;2.45;;;;;;;;;;6287504;22;20024;-90
2023/01/08 15:44:35;;;;;;;8.82;3.35;;;;;;;;;;6291238;22;20016;-90
2023/01/08 15:47:03;;;;;;;6.20;2.50;;;;;;;;;;6255158;22;20355;-91
2023/01/08 15:49:35;;;;;;;6.68;2.70;;;;;;;;;;6253847;22;20024;-91
2023/01/08 15:52:03;;;;;;;9.73;2.88;;;;;;;;;;6267626;22;20026;-92
2023/01/08 15:54:31;;;;;;;6.75;2.28;;;;;;;;;;6224583;22;20343;-92
2023/01/08 15:57:03;;;;;;;6.07;2.30;;;;;;;;;;6285245;22;20024;-92
2023/01/08 15:59:34;;;;;;;6.43;2.80;;;;;;;;;;6284377;22;20015;-92
2023/01/08 16:02:03;;;;;;;9.43;2.78;;;;;;;;;;6298111;22;20397;-93
2023/01/08 16:04:30;;;;;;;6.60;2.28;;;;;;;;;;6294709;22;20019;-93
2023/01/08 16:06:58;;;;;;;6.90;2.60;;;;;;;;;;6257242;22;20019;-92
2023/01/08 16:09:31;;;;;;;10.35;2.65;;;;;;;;;;6266574;22;20766;-92